»·PEaware :: N5756Q KSBA-KOXR

N5756Q :: KSBA-KOXR

FLIGHT INFORMATION

Flight Status: Arrived
Operator: Privately registered:
United States
More flights under this callsign
Pilot: Juan D. (11620)
Aircraft: MOONEY M-20 201 202 205 220 ATS MSE
(M20P)
More flights by this aircraft type
Origin: KSBA Santa Barbara Mun
United States
Destination: KOXR Oxnard
United States
More flights between these airports :: More routes between these airports
Route: +KWANG CMA
File this flight plan on PilotEdge
Remarks: TEC ROUTE SBAP35
Altitude:
(Current/Filed)
5,000ft
Speed:
(Current/Filed)
160kts
Departed: 26-Jul-20 09:05 AM
Arrived: 26-Jul-20 09:39 AM
Distance/Time
Traveled:
35nm/0:34
Distance/Time
To Go:
Arrived

Flight Plot

Page will automatically refresh every two minutes.


Map Options




Map Legend


Flown Route
Filed Route
Departure Airport
Arrival Airport
Navaid (VOR, NDB)
Fix

Horizontal Profiles

Position Reports

Time Latitude Longitude Heading Altitude Ground
Speed
26-Jul-20 08:50 34.431753 -119.834091 339 16ft 0kts
26-Jul-20 08:51 34.431753 -119.834091 339 16ft 0kts
26-Jul-20 08:52 34.431753 -119.834091 339 16ft 0kts
26-Jul-20 08:53 34.431753 -119.834091 339 16ft 0kts
26-Jul-20 08:54 34.431753 -119.834091 339 16ft 0kts
26-Jul-20 08:55 34.431753 -119.834091 339 16ft 0kts
26-Jul-20 08:56 34.431753 -119.834091 339 16ft 0kts
26-Jul-20 08:57 34.431753 -119.834091 339 16ft 0kts
26-Jul-20 08:58 34.431753 -119.834091 339 16ft 0kts
26-Jul-20 08:59 34.431753 -119.834091 339 16ft 0kts
26-Jul-20 09:00 34.431753 -119.834091 339 16ft 0kts
26-Jul-20 09:01 34.431806 -119.834114 340 16ft 5kts
26-Jul-20 09:02 34.430795 -119.839464 248 14ft 16kts
26-Jul-20 09:03 34.430720 -119.839697 249 14ft 0kts
26-Jul-20 09:04 34.426008 -119.838920 165 12ft 81kts
26-Jul-20 09:05 34.396889 -119.828797 163 608ft 126kts
26-Jul-20 09:06 34.361433 -119.815645 163 1308ft 134kts
26-Jul-20 09:07 34.326849 -119.802972 163 2196ft 126kts
26-Jul-20 09:08 34.293864 -119.791136 163 2985ft 129kts
26-Jul-20 09:09 34.254117 -119.776910 163 3002ft 163kts
26-Jul-20 09:10 34.215733 -119.750563 95 2995ft 170kts
26-Jul-20 09:11 34.212788 -119.693014 93 2999ft 173kts
26-Jul-20 09:12 34.210001 -119.634723 92 2999ft 173kts
26-Jul-20 09:13 34.207663 -119.576454 90 2999ft 174kts
26-Jul-20 09:14 34.208373 -119.518093 85 3056ft 170kts
26-Jul-20 09:15 34.212918 -119.463312 83 3539ft 158kts
26-Jul-20 09:16 34.217285 -119.411273 83 3986ft 156kts
26-Jul-20 09:18 34.221946 -119.356207 83 4000ft 171kts
26-Jul-20 09:19 34.226903 -119.298014 84 4000ft 175kts
26-Jul-20 09:20 34.231913 -119.239075 84 3997ft 178kts
26-Jul-20 09:21 34.237096 -119.178903 84 3999ft 181kts
26-Jul-20 09:22 34.242522 -119.118127 84 3999ft 182kts
26-Jul-20 09:23 34.248241 -119.056858 84 3999ft 183kts
26-Jul-20 09:24 34.254221 -118.995479 83 3999ft 184kts
26-Jul-20 09:25 34.260321 -118.934100 83 3999ft 184kts
26-Jul-20 09:26 34.266577 -118.872399 83 3999ft 185kts
26-Jul-20 09:27 34.265864 -118.812787 146 4009ft 178kts
26-Jul-20 09:28 34.218090 -118.799501 174 3999ft 177kts
26-Jul-20 09:29 34.195456 -118.842897 272 3998ft 172kts
26-Jul-20 09:30 34.196072 -118.900789 271 4002ft 172kts
26-Jul-20 09:31 34.197743 -118.958940 273 4002ft 173kts
26-Jul-20 09:31 34.198584 -119.002957 269 3986ft 134kts
26-Jul-20 09:33 34.198888 -119.058610 274 2688ft 140kts
26-Jul-20 09:34 34.200264 -119.101627 271 1822ft 105kts
26-Jul-20 09:35 34.199712 -119.131907 270 1198ft 78kts
26-Jul-20 09:35 34.200326 -119.152013 273 783ft 59kts
26-Jul-20 09:36 34.200640 -119.171801 270 474ft 59kts
26-Jul-20 09:38 34.200732 -119.199095 268 108ft 85kts
26-Jul-20 09:38 34.200848 -119.215755 264 34ft 23kts
26-Jul-20 09:39 34.199845 -119.212139 88 36ft 30kts
26-Jul-20 09:40 34.199655 -119.199931 121 46ft 35kts

Navigation Log

Ident Type
Flight plan parsing failed, navigation log unavailable